Time;durP1;ratioP1;P1;durP2;ratioP2;P2;SDS_P1;SDS_P2;PMS_P1;PMS_P2;Temp;Humidity;BMP_temperature;BMP_pressure;BME280_temperature;BME280_humidity;BME280_pressure;Samples;Min_cycle;Max_cycle;Signal;HPM_P1;HPM_P2
2023/08/31 00:01:48;;;;;;;;;6.67;4.67;;;;;18.02;51.77;100934.28;5088137;27;45469;-49
2023/08/31 00:04:14;;;;;;;;;4.33;4.33;;;;;18.02;51.81;100943.19;5072313;27;45469;-52
2023/08/31 00:06:45;;;;;;;;;6.00;5.00;;;;;18.01;51.70;100941.47;5091747;27;46208;-49
2023/08/31 00:09:10;;;;;;;;;4.33;4.33;;;;;18.03;52.03;100944.06;5082531;27;45503;-49
2023/08/31 00:11:36;;;;;;;;;6.67;4.67;;;;;18.04;51.78;100955.69;5080161;27;45326;-52
2023/08/31 00:14:02;;;;;;;;;4.00;4.00;;;;;18.06;51.89;100953.72;5084586;27;45485;-49
2023/08/31 00:16:27;;;;;;;;;4.00;4.00;;;;;18.06;51.63;100949.19;5077305;27;46198;-51
2023/08/31 00:18:54;;;;;;;;;5.00;3.33;;;;;18.09;52.02;100946.25;5093499;27;62717;-46
2023/08/31 00:21:20;;;;;;;;;3.00;3.00;;;;;18.09;51.75;100943.56;5070402;27;45489;-50
2023/08/31 00:23:46;;;;;;;;;3.00;3.00;;;;;18.11;51.31;100946.16;5089880;27;45485;-50
2023/08/31 00:26:11;;;;;;;;;5.33;2.33;;;;;18.08;51.66;100946.38;5085018;27;70110;-50
2023/08/31 00:28:37;;;;;;;;;7.33;4.00;;;;;18.05;52.12;100942.09;5086970;27;66736;-51
2023/08/31 00:31:05;;;;;;;;;3.00;3.00;;;;;18.05;51.72;100938.56;5085426;27;45561;-51
2023/08/31 00:33:33;;;;;;;;;5.00;4.00;;;;;18.05;51.76;100941.25;5082940;27;45577;-51
2023/08/31 00:36:03;;;;;;;;;3.00;3.00;;;;;18.03;51.76;100930.63;5085902;27;47135;-49
2023/08/31 00:38:28;;;;;;;;;3.00;3.00;;;;;17.99;51.84;100919.22;5081370;27;45356;-47
2023/08/31 00:40:54;;;;;;;;;5.67;3.00;;;;;17.98;51.93;100920.19;5084363;27;45519;-49
2023/08/31 00:43:20;;;;;;;;;1.00;1.00;;;;;17.95;51.67;100931.22;5080550;27;45522;-49
2023/08/31 00:45:48;;;;;;;;;3.00;3.00;;;;;17.92;51.74;100934.09;5084258;27;46716;-50
2023/08/31 00:48:16;;;;;;;;;5.67;3.00;;;;;17.91;52.00;100934.22;5067901;27;45428;-49
2023/08/31 00:50:42;;;;;;;;;3.33;2.33;;;;;17.90;51.93;100929.81;5086279;27;45536;-51
2023/08/31 00:53:08;;;;;;;;;4.00;3.00;;;;;17.88;52.12;100926.41;5079458;27;45324;-47
2023/08/31 00:55:33;;;;;;;;;4.00;2.00;;;;;17.86;52.24;100932.75;5093391;27;47103;-49
2023/08/31 00:57:59;;;;;;;;;2.00;2.00;;;;;17.82;52.35;100931.28;5094705;27;45550;-50
2023/08/31 01:00:33;;;;;;;;;2.00;2.00;;;;;17.80;51.91;100930.53;5099032;27;45437;-49
2023/08/31 01:03:09;;;;;;;;;2.33;2.33;;;;;17.79;52.43;100918.06;5074303;27;45426;-50
2023/08/31 01:06:04;;;;;;;;;5.33;3.33;;;;;17.79;52.22;100928.81;5066118;27;45410;-48
2023/08/31 01:08:39;;;;;;;;;2.67;2.33;;;;;17.77;52.17;100925.41;5074736;27;45350;-49
2023/08/31 01:11:19;;;;;;;;;4.67;2.00;;;;;17.75;52.43;100935.44;5069417;27;45529;-51
2023/08/31 01:13:50;;;;;;;;;3.67;2.00;;;;;17.73;52.16;100928.44;5068207;27;45527;-50
2023/08/31 01:16:16;;;;;;;;;3.67;2.00;;;;;17.71;52.68;100933.97;5077898;27;46906;-51
2023/08/31 01:18:43;;;;;;;;;2.33;2.33;;;;;17.68;52.22;100935.06;5072455;27;72233;-47
2023/08/31 01:21:22;;;;;;;;;3.00;2.33;;;;;17.67;52.48;100929.81;5099261;27;45447;-49
2023/08/31 01:23:54;;;;;;;;;2.00;2.00;;;;;17.71;52.55;100936.66;5074397;27;45509;-50
2023/08/31 01:26:20;;;;;;;;;2.00;2.00;;;;;17.73;52.51;100937.41;5093165;27;46022;-52
2023/08/31 01:28:47;;;;;;;;;3.67;2.00;;;;;17.75;52.67;100942.66;5098779;27;45564;-51
2023/08/31 01:31:14;;;;;;;;;4.33;3.00;;;;;17.75;52.54;100942.66;5075857;27;45396;-52
2023/08/31 01:33:39;;;;;;;;;4.00;3.00;;;;;17.74;52.31;100943.63;5082869;27;45830;-51
2023/08/31 01:36:10;;;;;;;;;2.00;2.00;;;;;17.74;52.75;100935.56;5091057;27;74616;-51
2023/08/31 01:38:38;;;;;;;;;3.00;2.33;;;;;17.74;52.35;100944.47;5075770;27;45453;-49
2023/08/31 01:41:07;;;;;;;;;2.00;2.00;;;;;17.73;52.31;100953.53;5093637;27;64740;-53
2023/08/31 01:43:33;;;;;;;;;5.33;2.00;;;;;17.72;52.55;100948.25;5090115;27;45293;-49
2023/08/31 01:46:00;;;;;;;;;3.33;1.33;;;;;17.73;52.55;100948.16;5081295;27;72400;-52
2023/08/31 01:48:25;;;;;;;;;1.33;1.00;;;;;17.75;52.84;100953.41;5082873;27;45493;-50
2023/08/31 01:50:50;;;;;;;;;4.33;2.00;;;;;17.76;52.59;100941.69;5095275;27;52020;-50
2023/08/31 01:53:15;;;;;;;;;1.33;1.00;;;;;17.78;52.63;100939.72;5072573;27;67357;-52
2023/08/31 01:55:41;;;;;;;;;2.33;2.33;;;;;17.79;52.64;100938.75;5083554;27;59977;-49
2023/08/31 01:58:07;;;;;;;;;1.00;1.00;;;;;17.81;52.67;100942.19;5097634;27;45321;-52
2023/08/31 02:00:34;;;;;;;;;2.33;2.00;;;;;17.81;52.75;100942.19;5095937;27;45290;-51
2023/08/31 02:03:00;;;;;;;;;3.00;3.00;;;;;17.82;52.61;100939.38;5086030;27;46568;-50
2023/08/31 02:05:25;;;;;;;;;3.00;3.00;;;;;17.82;52.75;100939.38;5080627;27;45596;-52
2023/08/31 02:07:51;;;;;;;;;4.00;3.00;;;;;17.82;52.55;100933.09;5071250;27;70952;-49
2023/08/31 02:10:16;;;;;;;;;4.33;2.00;;;;;17.80;52.44;100933.22;5082438;27;62806;-52
2023/08/31 02:12:41;;;;;;;;;3.33;2.33;;;;;17.77;52.60;100933.50;5085051;27;68174;-50
2023/08/31 02:15:07;;;;;;;;;1.33;1.33;;;;;17.76;53.00;100928.25;5087370;27;73465;-51
2023/08/31 02:17:33;;;;;;;;;3.67;2.33;;;;;17.76;52.61;100936.31;5083568;27;46861;-52
2023/08/31 02:20:00;;;;;;;;;2.00;2.00;;;;;17.74;52.72;100935.56;5084143;27;45360;-50
2023/08/31 02:22:25;;;;;;;;;2.00;2.00;;;;;17.73;52.66;100931.16;5089802;27;45417;-50
2023/08/31 02:24:52;;;;;;;;;1.67;1.67;;;;;17.73;52.97;100932.03;5085257;27;45977;-48
2023/08/31 02:27:17;;;;;;;;;1.67;1.67;;;;;17.73;52.77;100934.72;5086597;27;45562;-51
2023/08/31 02:29:42;;;;;;;;;3.33;2.00;;;;;17.72;52.75;100927.63;5090198;27;45744;-48
2023/08/31 02:32:08;;;;;;;;;2.00;2.00;;;;;17.73;52.72;100933.84;5093229;27;69576;-51
2023/08/31 02:34:33;;;;;;;;;2.33;2.33;;;;;17.69;52.77;100934.09;5093496;27;46941;-52
2023/08/31 02:36:58;;;;;;;;;3.33;1.33;;;;;17.68;52.78;100929.69;5089903;27;45461;-52
2023/08/31 02:39:24;;;;;;;;;3.33;2.00;;;;;17.69;52.81;100930.53;5096083;27;57547;-49
2023/08/31 02:41:49;;;;;;;;;2.00;2.00;;;;;17.68;53.21;100940.44;5094844;27;45224;-51
2023/08/31 02:44:15;;;;;;;;;3.00;2.00;;;;;17.68;52.88;100939.59;5068522;27;46385;-48
2023/08/31 02:46:40;;;;;;;;;2.33;1.67;;;;;17.68;53.36;100942.28;5093831;27;45703;-50
2023/08/31 02:49:05;;;;;;;;;2.00;2.00;;;;;17.70;53.28;100932.25;5091836;27;62918;-51
2023/08/31 02:51:31;;;;;;;;;5.67;4.00;;;;;17.71;53.26;100936.66;5092556;27;45643;-48
2023/08/31 02:53:56;;;;;;;;;2.00;2.00;;;;;17.73;53.39;100939.22;5082828;27;64534;-50
2023/08/31 02:56:21;;;;;;;;;2.33;2.00;;;;;17.74;53.73;100939.09;5085947;27;62516;-51
2023/08/31 02:58:47;;;;;;;;;5.00;3.33;;;;;17.74;53.76;100939.09;5096612;27;45433;-49
2023/08/31 03:01:13;;;;;;;;;4.33;3.67;;;;;17.74;53.58;100938.25;5094074;27;65045;-51
2023/08/31 03:03:39;;;;;;;;;4.33;3.00;;;;;17.72;53.57;100935.69;5080310;27;45578;-49
2023/08/31 03:06:08;;;;;;;;;5.67;4.00;;;;;17.72;53.79;100938.38;5097877;27;45459;-52
2023/08/31 03:08:34;;;;;;;;;5.67;2.67;;;;;17.72;53.66;100942.88;5083027;27;45694;-49
2023/08/31 03:11:00;;;;;;;;;3.67;3.67;;;;;17.68;53.93;100932.38;5092459;27;45532;-50
2023/08/31 03:13:25;;;;;;;;;3.00;3.00;;;;;17.67;53.70;100936.03;5088965;27;63848;-48
2023/08/31 03:15:50;;;;;;;;;4.00;2.00;;;;;17.67;53.61;100927.13;5095756;27;57933;-50
2023/08/31 03:18:16;;;;;;;;;5.00;4.00;;;;;17.67;53.92;100929.81;5089677;27;46581;-48
2023/08/31 03:20:41;;;;;;;;;3.00;3.00;;;;;17.65;53.25;100927.25;5090411;27;52565;-51
2023/08/31 03:23:06;;;;;;;;;4.00;4.00;;;;;17.64;53.99;100927.38;5094821;27;70929;-52
2023/08/31 03:25:32;;;;;;;;;5.33;3.00;;;;;17.60;53.54;100934.81;5089611;27;54369;-50
2023/08/31 03:27:57;;;;;;;;;2.67;2.00;;;;;17.56;54.09;100927.97;5090212;27;66809;-49
2023/08/31 03:30:22;;;;;;;;;4.67;3.33;;;;;17.57;53.94;100923.41;5092981;27;70793;-49
2023/08/31 03:32:48;;;;;;;;;6.00;3.00;;;;;17.54;54.18;100916.44;5084127;27;56232;-50
2023/08/31 03:35:13;;;;;;;;;4.67;2.00;;;;;17.57;54.14;100923.41;5078995;27;68981;-48
2023/08/31 03:37:39;;;;;;;;;3.00;2.00;;;;;17.59;54.76;100911.56;5078752;28;45766;-49
2023/08/31 03:40:06;;;;;;;;;1.67;0.00;;;;;17.58;54.00;100911.69;5081388;27;67745;-52
2023/08/31 03:42:33;;;;;;;;;2.67;2.67;;;;;17.58;54.29;100917.91;5085425;27;46262;-52
2023/08/31 03:44:59;;;;;;;;;6.67;4.00;;;;;17.60;54.14;100921.34;5082597;27;45815;-50
2023/08/31 03:47:24;;;;;;;;;5.00;3.67;;;;;17.63;54.08;100925.66;5078725;27;47711;-52
2023/08/31 03:49:49;;;;;;;;;3.33;2.33;;;;;17.62;54.02;100914.00;5088263;27;45335;-51
2023/08/31 03:52:15;;;;;;;;;3.00;3.00;;;;;17.61;54.04;100922.22;5087131;27;70037;-52
2023/08/31 03:54:40;;;;;;;;;3.00;3.00;;;;;17.58;54.32;100912.53;5085051;27;45322;-49
2023/08/31 03:57:05;;;;;;;;;3.00;3.00;;;;;17.56;54.03;100908.25;5086941;27;45433;-49
2023/08/31 03:59:30;;;;;;;;;4.67;3.00;;;;;17.53;54.14;100917.41;5092426;27;45563;-51
2023/08/31 04:01:56;;;;;;;;;3.00;3.00;;;;;17.52;54.17;100915.69;5081429;27;73953;-51
2023/08/31 04:04:21;;;;;;;;;3.00;3.00;;;;;17.51;54.10;100924.78;5090489;27;72918;-52
2023/08/31 04:06:46;;;;;;;;;6.00;2.67;;;;;17.47;54.10;100923.25;5086839;27;66205;-53
2023/08/31 04:09:12;;;;;;;;;4.00;3.33;;;;;17.42;54.74;100918.25;5081514;27;66739;-52
2023/08/31 04:11:37;;;;;;;;;5.00;4.00;;;;;17.41;54.45;100923.75;5080704;27;66501;-51
2023/08/31 04:14:02;;;;;;;;;2.00;2.00;;;;;17.37;54.61;100925.81;5093802;27;72567;-49
2023/08/31 04:16:28;;;;;;;;;5.67;3.00;;;;;17.35;54.76;100925.94;5093130;27;65390;-48
2023/08/31 04:18:54;;;;;;;;;5.00;4.00;;;;;17.32;54.90;100930.69;5070752;27;67018;-52
2023/08/31 04:21:20;;;;;;;;;2.00;2.00;;;;;17.26;55.16;100923.97;5089310;27;46242;-50
2023/08/31 04:23:45;;;;;;;;;3.00;2.67;;;;;17.24;54.74;100923.22;5080892;27;45310;-48
2023/08/31 04:26:14;;;;;;;;;5.33;4.00;;;;;17.24;55.24;100925.91;5081128;27;45300;-49
2023/08/31 04:28:41;;;;;;;;;3.67;3.00;;;;;17.24;54.97;100922.38;5082575;27;45470;-48
2023/08/31 04:31:07;;;;;;;;;3.00;3.00;;;;;17.23;55.09;100926.03;5093164;27;47062;-51
2023/08/31 04:33:34;;;;;;;;;4.00;4.00;;;;;17.22;55.40;100925.16;5091034;27;45481;-50
2023/08/31 04:35:59;;;;;;;;;3.33;3.00;;;;;17.23;55.15;100928.72;5075276;27;45492;-51
2023/08/31 04:38:24;;;;;;;;;4.00;3.00;;;;;17.24;55.38;100939.34;5090145;27;57885;-49
2023/08/31 04:40:50;;;;;;;;;3.33;3.00;;;;;17.26;55.40;100936.53;5088505;27;46388;-50
2023/08/31 04:43:15;;;;;;;;;2.67;2.67;;;;;17.26;55.55;100934.72;5090340;27;67871;-50
2023/08/31 04:45:40;;;;;;;;;3.00;3.00;;;;;17.29;55.34;100939.84;5087403;27;64185;-47
2023/08/31 04:48:06;;;;;;;;;5.00;3.00;;;;;17.29;55.41;100942.53;5068249;27;45541;-50
2023/08/31 04:50:31;;;;;;;;;4.00;4.00;;;;;17.30;55.11;100946.94;5078271;27;45944;-50
2023/08/31 04:52:58;;;;;;;;;2.00;2.00;;;;;17.31;55.22;100950.47;5077978;27;71880;-48
2023/08/31 04:55:23;;;;;;;;;5.33;3.00;;;;;17.31;55.07;100948.66;5095929;27;45373;-51
2023/08/31 04:57:48;;;;;;;;;4.33;3.00;;;;;17.28;55.27;100948.88;5079637;27;45374;-49
2023/08/31 05:00:14;;;;;;;;;6.33;2.33;;;;;17.26;55.60;100948.16;5091948;27;74192;-49
2023/08/31 05:02:39;;;;;;;;;3.67;2.67;;;;;17.25;55.22;100942.88;5079271;27;45329;-53
2023/08/31 05:05:05;;;;;;;;;3.67;3.00;;;;;17.22;55.32;100946.66;5091159;27;66829;-48
2023/08/31 05:07:30;;;;;;;;;12.00;4.00;;;;;17.19;55.43;100958.53;5092479;27;45430;-49
2023/08/31 05:09:56;;;;;;;;;6.33;3.00;;;;;17.18;55.53;100966.66;5086558;27;52990;-48
2023/08/31 05:12:22;;;;;;;;;3.67;3.00;;;;;17.17;55.34;100962.28;5086332;27;72178;-48
2023/08/31 05:14:47;;;;;;;;;3.00;2.00;;;;;17.18;55.52;100959.50;5062013;27;45459;-48
2023/08/31 05:17:12;;;;;;;;;5.33;3.00;;;;;17.18;55.45;100958.59;5082636;27;68445;-50
2023/08/31 05:19:38;;;;;;;;;6.00;3.67;;;;;17.17;55.90;100948.84;5092760;27;74997;-49
2023/08/31 05:22:03;;;;;;;;;4.33;4.00;;;;;17.18;55.35;100954.09;5087516;27;45428;-49
2023/08/31 05:24:29;;;;;;;;;4.00;3.00;;;;;17.19;55.88;100954.97;5092221;27;45421;-48
2023/08/31 05:26:54;;;;;;;;;4.00;2.67;;;;;17.19;55.65;100966.59;5086296;27;63609;-49
2023/08/31 05:29:19;;;;;;;;;5.33;3.00;;;;;17.20;55.75;100962.06;5091655;27;45498;-50
2023/08/31 05:31:45;;;;;;;;;4.00;4.00;;;;;17.22;55.56;100967.31;5085778;27;72623;-49
2023/08/31 05:34:10;;;;;;;;;3.00;2.67;;;;;17.20;55.88;100967.44;5092110;27;46872;-48
2023/08/31 05:36:36;;;;;;;;;4.67;2.00;;;;;17.18;55.74;100964.88;5096706;27;56075;-49
2023/08/31 05:39:02;;;;;;;;;5.00;2.00;;;;;17.19;55.94;100973.78;5086566;27;46481;-51
2023/08/31 05:41:27;;;;;;;;;2.00;2.00;;;;;17.21;55.81;100974.53;5091453;27;45241;-53
2023/08/31 05:43:52;;;;;;;;;4.00;3.00;;;;;17.20;55.81;100972.81;5084274;27;45789;-50
2023/08/31 05:46:18;;;;;;;;;5.33;4.00;;;;;17.22;55.86;100970.00;5091193;27;48695;-52
2023/08/31 05:48:43;;;;;;;;;3.67;2.00;;;;;17.19;56.13;100974.66;5084966;27;73982;-52
2023/08/31 05:51:09;;;;;;;;;3.67;3.67;;;;;17.19;56.09;100965.72;5088776;27;45452;-48
2023/08/31 05:53:34;;;;;;;;;4.33;1.67;;;;;17.23;55.86;100979.78;5093018;27;45299;-51
2023/08/31 05:56:06;;;;;;;;;2.00;2.00;;;;;17.25;55.99;100976.00;5075258;27;45513;-48
2023/08/31 05:58:36;;;;;;;;;4.67;3.00;;;;;17.26;55.95;100976.84;5089864;27;46332;-48
2023/08/31 06:01:03;;;;;;;;;3.33;3.00;;;;;17.28;56.05;100980.28;5094762;27;45578;-50
2023/08/31 06:03:29;;;;;;;;;3.67;2.67;;;;;17.29;56.16;100990.06;5083080;27;45563;-51
2023/08/31 06:05:55;;;;;;;;;3.00;3.00;;;;;17.29;55.85;100988.22;5085934;27;45484;-50
2023/08/31 06:08:20;;;;;;;;;3.67;2.67;;;;;17.28;55.98;100988.34;5055425;27;46091;-52
2023/08/31 06:10:46;;;;;;;;;5.67;4.67;;;;;17.30;55.97;100989.06;5081754;27;45552;-47
2023/08/31 06:13:11;;;;;;;;;2.67;2.67;;;;;17.33;56.20;100994.25;5081692;27;45433;-51
2023/08/31 06:15:37;;;;;;;;;2.33;2.00;;;;;17.38;55.97;100985.81;5089013;27;45550;-50
2023/08/31 06:18:02;;;;;;;;;2.67;2.67;;;;;17.44;55.95;100980.84;5090909;27;46046;-52
2023/08/31 06:20:28;;;;;;;;;2.33;2.33;;;;;17.50;55.95;100987.59;5087460;27;46845;-53
2023/08/31 06:22:53;;;;;;;;;3.33;2.00;;;;;17.58;55.98;100978.94;5088412;27;45292;-50
2023/08/31 06:25:18;;;;;;;;;2.00;2.00;;;;;17.62;55.52;100983.94;5070656;27;67758;-50
2023/08/31 06:27:44;;;;;;;;;3.00;3.00;;;;;17.67;55.57;100976.38;5086757;27;71776;-53
2023/08/31 06:30:15;;;;;;;;;2.00;2.00;;;;;17.78;55.34;100980.06;5084471;27;45629;-52
2023/08/31 06:32:43;;;;;;;;;2.33;2.33;;;;;17.85;55.24;100982.16;5084998;27;45408;-53
2023/08/31 06:35:09;;;;;;;;;3.00;3.00;;;;;17.91;55.18;100993.41;5088202;27;45603;-51
2023/08/31 06:37:34;;;;;;;;;3.00;3.00;;;;;17.94;54.85;100991.38;5085315;27;73019;-51
2023/08/31 06:39:59;;;;;;;;;3.00;2.00;;;;;17.93;54.82;100992.34;5090772;27;72405;-49
2023/08/31 06:42:24;;;;;;;;;2.67;2.67;;;;;17.93;54.97;100999.59;5084386;27;64449;-50
2023/08/31 06:44:51;;;;;;;;;3.67;2.00;;;;;17.91;55.01;100993.41;5085117;27;46959;-51
2023/08/31 06:47:17;;;;;;;;;6.33;2.67;;;;;17.94;54.99;100993.19;5088869;27;46207;-51
2023/08/31 06:49:42;;;;;;;;;3.33;1.00;;;;;17.96;54.83;100989.41;5090350;27;45455;-53
2023/08/31 06:52:08;;;;;;;;;4.00;3.00;;;;;17.96;54.70;100994.78;5089290;27;45698;-50
2023/08/31 06:54:34;;;;;;;;;2.67;2.33;;;;;18.00;54.89;101000.81;5091062;27;63334;-48
2023/08/31 06:56:59;;;;;;;;;7.00;4.00;;;;;18.02;54.89;101002.41;5090833;27;45469;-52
2023/08/31 06:59:24;;;;;;;;;5.67;2.00;;;;;18.05;54.57;101006.69;5088730;27;70042;-52
2023/08/31 07:01:50;;;;;;;;;2.33;2.00;;;;;18.02;54.59;101001.56;5088752;27;45662;-48
2023/08/31 07:04:15;;;;;;;;;4.67;3.00;;;;;18.05;54.51;101011.22;5088791;27;45697;-52
2023/08/31 07:06:40;;;;;;;;;2.67;2.33;;;;;18.08;54.42;101006.47;5090975;27;46074;-50
2023/08/31 07:09:08;;;;;;;;;2.33;2.33;;;;;18.10;54.88;101009.03;5088544;27;47991;-49
2023/08/31 07:11:33;;;;;;;;;5.67;3.33;;;;;18.13;54.53;101014.16;5087377;27;45468;-52
2023/08/31 07:13:59;;;;;;;;;3.67;2.33;;;;;18.17;54.35;101011.13;5089131;27;66549;-51
2023/08/31 07:16:24;;;;;;;;;2.67;2.67;;;;;18.25;54.29;101013.22;5071640;27;46096;-52
2023/08/31 07:18:50;;;;;;;;;3.00;3.00;;;;;18.40;53.95;101016.50;5085640;27;45429;-50
2023/08/31 07:21:15;;;;;;;;;4.00;3.00;;;;;18.54;53.91;101015.41;5095704;27;64028;-50
2023/08/31 07:23:40;;;;;;;;;4.67;3.00;;;;;18.66;53.47;101022.47;5085757;27;70104;-54
2023/08/31 07:26:05;;;;;;;;;2.00;2.00;;;;;18.79;53.23;101026.88;5095030;27;61450;-51
2023/08/31 07:28:31;;;;;;;;;2.67;2.33;;;;;18.84;52.87;101019.28;5092656;27;45406;-51
2023/08/31 07:31:06;;;;;;;;;4.33;2.67;;;;;18.88;52.38;101030.66;5090216;27;54209;-51
2023/08/31 07:33:32;;;;;;;;;4.00;2.33;;;;;18.94;52.47;101032.88;5090600;27;45275;-52
2023/08/31 07:36:31;;;;;;;;;4.33;3.00;;;;;18.98;52.61;101027.13;5095461;27;47756;-51
2023/08/31 07:38:57;;;;;;;;;2.33;2.00;;;;;19.09;52.54;101033.47;5089307;27;45673;-49
2023/08/31 07:41:23;;;;;;;;;4.33;3.00;;;;;19.09;51.85;101033.47;5075867;27;47540;-50
2023/08/31 07:43:49;;;;;;;;;3.33;2.00;;;;;19.06;51.51;101033.72;5068396;27;45917;-48
2023/08/31 07:46:14;;;;;;;;;3.67;3.33;;;;;19.10;52.31;101038.75;5087375;27;45584;-60
2023/08/31 07:48:40;;;;;;;;;2.00;1.67;;;;;19.20;52.03;101038.81;5090995;27;45393;-60
2023/08/31 07:51:05;;;;;;;;;8.67;3.33;;;;;19.38;52.15;101046.38;5083380;27;45424;-61
2023/08/31 07:53:31;;;;;;;;;6.00;3.00;;;;;19.56;52.00;101046.69;5075275;28;45818;-61
2023/08/31 07:55:56;;;;;;;;;3.00;3.00;;;;;19.92;51.00;101047.25;5069450;27;46053;-60
2023/08/31 07:58:26;;;;;;;;;4.00;4.00;;;;;20.40;51.23;101037.72;5093844;27;45478;-60
2023/08/31 08:00:55;;;;;;;;;6.00;3.67;;;;;20.86;50.26;101038.19;5081359;27;45802;-61
2023/08/31 08:03:21;;;;;;;;;4.00;3.00;;;;;21.36;49.35;101040.84;5081516;27;45782;-60
2023/08/31 08:05:47;;;;;;;;;4.67;2.00;;;;;21.77;48.44;101041.59;5086699;27;45363;-60
2023/08/31 08:08:12;;;;;;;;;3.00;1.67;;;;;21.90;47.78;101040.41;5091967;27;71782;-62
2023/08/31 08:10:37;;;;;;;;;1.67;1.67;;;;;21.92;47.20;101049.25;5079507;27;45401;-61
2023/08/31 08:13:03;;;;;;;;;4.33;2.33;;;;;21.82;46.45;101046.56;5080220;27;45503;-61
2023/08/31 08:15:29;;;;;;;;;2.00;2.00;;;;;21.71;47.11;101041.31;5084067;27;46198;-61
2023/08/31 08:17:54;;;;;;;;;2.67;2.67;;;;;21.64;46.23;101036.47;5087471;27;45317;-61
2023/08/31 08:20:19;;;;;;;;;4.67;3.33;;;;;21.54;44.87;101038.31;5070162;28;45488;-61
2023/08/31 08:22:45;;;;;;;;;3.25;2.50;;;;;21.42;46.03;101042.13;5085655;27;60291;-61
2023/08/31 08:25:10;;;;;;;;;1.67;1.00;;;;;21.42;46.27;101036.69;5080308;27;45701;-61
2023/08/31 08:27:36;;;;;;;;;1.33;1.33;;;;;21.48;46.29;101042.44;5086315;27;45754;-61
2023/08/31 08:30:02;;;;;;;;;5.67;3.00;;;;;21.54;45.52;101040.16;5077252;27;45799;-61
2023/08/31 08:32:28;;;;;;;;;3.00;3.00;;;;;21.60;45.70;101034.19;5083357;27;45952;-61
2023/08/31 08:34:53;;;;;;;;;5.33;4.00;;;;;21.69;45.79;101038.72;5087135;27;45727;-61
2023/08/31 08:37:19;;;;;;;;;6.33;3.33;;;;;21.82;45.97;101030.31;5064175;28;57178;-61
2023/08/31 08:39:48;;;;;;;;;6.67;3.00;;;;;21.92;45.36;101036.56;5062132;27;49426;-61
2023/08/31 08:42:14;;;;;;;;;5.33;3.67;;;;;21.93;45.16;101041.00;5084849;27;45407;-61
2023/08/31 08:44:40;;;;;;;;;5.33;4.00;;;;;21.93;45.38;101046.41;5072227;27;70785;-61
2023/08/31 08:47:06;;;;;;;;;5.00;3.00;;;;;22.02;45.44;101044.69;5072193;27;69886;-61
2023/08/31 08:49:32;;;;;;;;;5.33;3.33;;;;;22.08;43.68;101043.22;5084552;27;46169;-61
2023/08/31 08:51:59;;;;;;;;;6.00;1.67;;;;;22.01;44.94;101055.66;5073163;27;45724;-61
2023/08/31 08:54:24;;;;;;;;;6.33;2.00;;;;;21.83;44.42;101052.84;5084164;27;46331;-61
2023/08/31 08:56:50;;;;;;;;;2.67;2.00;;;;;21.63;44.28;101053.69;5091755;27;56524;-61
2023/08/31 08:59:15;;;;;;;;;3.33;3.00;;;;;21.49;45.04;101052.22;5072135;27;45691;-61
2023/08/31 09:01:42;;;;;;;;;4.33;2.00;;;;;21.42;45.16;101053.81;5091891;27;45379;-61
2023/08/31 09:04:09;;;;;;;;;5.00;3.33;;;;;21.40;45.16;101052.25;5088075;27;46158;-61
2023/08/31 09:06:34;;;;;;;;;6.00;3.00;;;;;21.36;45.07;101054.38;5070485;27;45687;-61
2023/08/31 09:09:00;;;;;;;;;4.00;3.00;;;;;21.36;44.91;101050.81;5087255;27;45448;-62
2023/08/31 09:11:26;;;;;;;;;4.00;4.00;;;;;21.39;44.90;101048.66;5085936;27;45445;-61
2023/08/31 09:13:52;;;;;;;;;4.00;3.00;;;;;21.48;44.87;101055.09;5088158;27;47057;-61
2023/08/31 09:16:29;;;;;;;;;2.67;2.00;;;;;21.52;45.79;101044.84;5088117;27;45698;-62
2023/08/31 09:18:55;;;;;;;;;6.00;1.00;;;;;21.60;45.55;101051.28;5089377;27;45461;-62
2023/08/31 09:21:21;;;;;;;;;3.33;3.00;;;;;21.71;45.37;101044.03;5093060;27;45458;-61
2023/08/31 09:23:57;;;;;;;;;5.00;3.33;;;;;21.88;45.15;101047.84;5094905;27;46197;-62
2023/08/31 09:26:22;;;;;;;;;4.67;4.67;;;;;22.03;44.41;101050.94;5094408;27;45345;-61
2023/08/31 09:28:48;;;;;;;;;2.00;2.00;;;;;22.24;44.81;101048.03;5088368;27;67765;-61
2023/08/31 09:31:14;;;;;;;;;2.33;2.00;;;;;22.89;44.49;101047.22;5084410;27;56794;-61
2023/08/31 09:33:49;;;;;;;;;2.00;2.00;;;;;23.45;43.43;101039.88;5082924;27;70391;-61
2023/08/31 09:36:15;;;;;;;;;5.67;2.67;;;;;23.86;42.71;101029.34;5090991;27;45484;-61
2023/08/31 09:38:44;;;;;;;;;2.33;2.33;;;;;23.95;39.82;101027.59;5089307;27;62293;-60
2023/08/31 09:41:09;;;;;;;;;3.00;2.00;;;;;23.54;40.38;101028.06;5090058;27;45327;-61
2023/08/31 09:43:35;;;;;;;;;6.00;2.00;;;;;23.01;41.27;101026.16;5087799;27;70873;-59
2023/08/31 09:46:02;;;;;;;;;2.00;2.00;;;;;22.53;42.35;101036.25;5080749;27;73311;-59
2023/08/31 09:48:29;;;;;;;;;3.67;3.00;;;;;22.20;43.01;101039.38;5087805;27;45382;-60
2023/08/31 09:50:55;;;;;;;;;3.00;2.67;;;;;21.95;44.16;101040.84;5083260;27;45710;-60
2023/08/31 09:53:21;;;;;;;;;5.00;3.00;;;;;21.74;44.52;101044.56;5058495;27;47420;-60
2023/08/31 09:55:48;;;;;;;;;3.00;3.00;;;;;21.28;45.55;101036.13;5068189;27;45457;-60
2023/08/31 09:58:17;;;;;;;;;2.33;2.00;;;;;21.07;46.52;101038.97;5082997;27;45617;-60
2023/08/31 10:00:43;;;;;;;;;8.00;3.67;;;;;20.97;47.10;101038.09;5079713;27;45684;-59
2023/08/31 10:03:09;;;;;;;;;6.33;3.33;;;;;20.89;47.21;101035.22;5092921;27;45482;-60
2023/08/31 10:05:34;;;;;;;;;2.67;2.67;;;;;20.91;47.97;101033.22;5057164;27;45530;-67
2023/08/31 10:08:00;;;;;;;;;2.67;2.00;;;;;20.88;48.06;101034.34;5077008;27;60287;-61
2023/08/31 10:10:27;;;;;;;;;4.33;3.00;;;;;20.82;48.81;101024.97;5092928;27;62917;-61
2023/08/31 10:12:53;;;;;;;;;8.67;3.00;;;;;20.76;50.21;101030.91;5085069;27;46126;-62
2023/08/31 10:15:19;;;;;;;;;4.33;3.00;;;;;20.73;50.67;101024.91;5085669;27;45441;-62
2023/08/31 10:17:45;;;;;;;;;4.00;4.00;;;;;20.76;51.00;101022.81;5094079;27;45652;-62
2023/08/31 10:20:12;;;;;;;;;3.33;3.33;;;;;20.71;51.67;101021.53;5076539;27;45365;-60
2023/08/31 10:22:37;;;;;;;;;4.00;3.00;;;;;20.76;51.08;101022.81;5080011;27;45676;-61
2023/08/31 10:25:05;;;;;;;;;7.67;4.00;;;;;20.87;51.81;101024.56;5083862;27;66825;-63
2023/08/31 10:27:42;;;;;;;;;6.33;4.67;;;;;20.93;50.82;101028.56;5080217;27;45397;-63
2023/08/31 10:30:26;;;;;;;;;6.67;4.00;;;;;20.85;51.94;101023.84;5085519;27;45477;-63
2023/08/31 10:33:07;;;;;;;;;5.00;4.00;;;;;20.77;51.92;101021.81;5071181;27;47020;-62
2023/08/31 10:35:48;;;;;;;;;3.00;3.00;;;;;20.78;52.33;101020.84;5088310;27;45320;-62
2023/08/31 10:38:26;;;;;;;;;6.00;4.33;;;;;20.79;52.20;101024.38;5089927;27;45415;-62
2023/08/31 10:41:07;;;;;;;;;4.00;4.00;;;;;20.87;52.19;101023.69;5091422;27;45409;-63
2023/08/31 10:43:45;;;;;;;;;3.00;3.00;;;;;20.78;51.86;101022.66;5082205;27;46393;-62
2023/08/31 10:46:18;;;;;;;;;4.67;3.67;;;;;20.54;51.95;101020.28;5079755;27;45335;-63
2023/08/31 10:49:09;;;;;;;;;5.00;3.00;;;;;20.38;52.01;101021.66;5067536;27;45611;-63
2023/08/31 10:51:35;;;;;;;;;3.00;2.00;;;;;20.20;52.65;101021.41;5090802;27;45593;-63
2023/08/31 10:54:27;;;;;;;;;5.33;3.00;;;;;20.09;52.61;101010.69;5088792;27;46223;-63
2023/08/31 10:59:53;;;;;;;;;5.33;5.33;;;;;20.04;52.42;100997.59;5093322;27;45473;-62
2023/08/31 11:02:31;;;;;;;;;5.33;3.00;;;;;20.24;52.76;101003.94;5101239;27;45592;-62
2023/08/31 11:05:10;;;;;;;;;4.00;4.00;;;;;20.36;52.47;100999.31;5095260;27;45458;-62
2023/08/31 11:07:36;;;;;;;;;4.00;3.00;;;;;20.38;51.79;101002.75;5096274;27;45404;-62
2023/08/31 11:10:23;;;;;;;;;4.67;4.67;;;;;20.31;52.33;101004.25;5096552;27;45485;-62
2023/08/31 11:12:50;;;;;;;;;5.00;4.00;;;;;20.26;52.03;101001.09;5093119;27;45412;-63
2023/08/31 11:15:17;;;;;;;;;3.00;2.00;;;;;20.14;51.54;100984.13;5096777;27;46138;-63
2023/08/31 11:17:43;;;;;;;;;6.00;4.00;;;;;20.11;51.80;100979.88;5093536;27;45446;-61
2023/08/31 11:20:13;;;;;;;;;5.67;4.00;;;;;20.23;51.62;100980.63;5092445;27;45489;-62
2023/08/31 11:22:42;;;;;;;;;2.33;2.33;;;;;20.28;52.09;100986.47;5095534;27;45573;-61
2023/08/31 11:25:12;;;;;;;;;4.33;4.33;;;;;20.21;53.03;100981.75;5087174;27;45459;-62
2023/08/31 11:27:38;;;;;;;;;3.00;3.00;;;;;20.23;52.96;100990.59;5092905;27;45403;-61